Promontory, Utah
Current Conditions -  °F | °C
As of 8:53 PM on Wednesday 26 Nov 2014 (Local Time) from KOGD Reporting Station
Clear Clear  
Wind Chill: 37°   Ceiling: Unl
Heat Index: 43°   Visibility: 10mi
Dew Point: 29°   Wind: 10mph
Humidity: 58%   Direction: 170°S
Pressure: 30.34"   Gusts: NA
Location:  41.5038°N, 112.48°W
Report Text: KOGD 270353Z AUTO 17009KT 10SM CLR 06/M02 A3034 RMK AO2 SLP265 T00611017 TSNO
Loading
Personal Weather Stations






























Interactive Weather Map New forecast layout! Learn more

10-Day Weather Forecast

Advertisements
Track Severe Weather on mobile